createdAt,value
2023-02-12T00:01:19.169Z,86.71
2023-02-12T00:03:46.512Z,86.43
2023-02-12T00:06:16.061Z,86.86
2023-02-12T00:08:47.238Z,87.10
2023-02-12T00:11:18.171Z,87.23
2023-02-12T00:13:46.477Z,87.53
2023-02-12T00:16:16.967Z,87.33
2023-02-12T00:18:45.945Z,88.18
2023-02-12T00:21:15.458Z,88.20
2023-02-12T00:23:42.806Z,88.40
2023-02-12T00:26:15.526Z,88.42
2023-02-12T00:28:43.472Z,89.01
2023-02-12T00:31:14.655Z,89.51
2023-02-12T00:33:42.648Z,89.93
2023-02-12T00:36:14.691Z,90.36
2023-02-12T00:38:42.262Z,90.53
2023-02-12T00:41:11.577Z,90.44
2023-02-12T00:43:39.180Z,90.30
2023-02-12T00:46:08.000Z,90.43
2023-02-12T00:48:36.393Z,90.61
2023-02-12T00:51:05.287Z,91.29
2023-02-12T00:53:33.684Z,91.65
2023-02-12T00:56:01.681Z,91.80
2023-02-12T00:58:30.257Z,91.70
2023-02-12T01:00:57.616Z,91.72
2023-02-12T01:03:25.957Z,92.19
2023-02-12T01:05:55.067Z,92.92
2023-02-12T01:08:23.568Z,92.78
2023-02-12T01:11:01.139Z,92.94
2023-02-12T01:13:30.669Z,93.55
2023-02-12T01:16:14.894Z,93.61
2023-02-12T01:18:43.950Z,93.68
2023-02-12T01:21:16.716Z,93.44
2023-02-12T01:23:44.825Z,93.42
2023-02-12T01:26:14.422Z,93.59
2023-02-12T01:28:44.421Z,94.10
2023-02-12T01:31:17.077Z,94.33
2023-02-12T01:33:48.594Z,94.57
2023-02-12T01:36:19.207Z,95.18
2023-02-12T01:38:47.878Z,96.11
2023-02-12T01:41:20.209Z,97.13
2023-02-12T01:44:06.087Z,97.49
2023-02-12T01:46:34.361Z,97.55
2023-02-12T01:49:04.400Z,97.68
2023-02-12T01:51:33.478Z,98.32
2023-02-12T01:54:05.675Z,98.21
2023-02-12T01:56:34.907Z,98.40
2023-02-12T01:59:02.931Z,98.26
2023-02-12T02:01:33.741Z,98.56
2023-02-12T02:04:08.186Z,98.56
2023-02-12T02:06:45.374Z,98.36
2023-02-12T02:09:14.642Z,98.98
2023-02-12T02:12:01.862Z,99.19
2023-02-12T02:14:33.004Z,99.54
2023-02-12T02:17:16.106Z,99.79
2023-02-12T02:20:09.806Z,100.00
2023-02-12T02:22:42.396Z,100.00
2023-02-12T02:25:46.262Z,100.00
2023-02-12T02:28:29.453Z,100.00
2023-02-12T02:31:06.485Z,100.00
2023-02-12T02:33:39.282Z,100.00
2023-02-12T02:36:14.657Z,100.00
2023-02-12T02:39:01.812Z,100.00
2023-02-12T02:41:33.671Z,100.00
2023-02-12T02:44:09.198Z,100.00
2023-02-12T02:46:48.243Z,100.00
2023-02-12T02:49:23.971Z,100.00
2023-02-12T02:51:57.162Z,100.00
2023-02-12T02:54:34.803Z,100.00
2023-02-12T02:57:13.729Z,100.00
2023-02-12T02:59:46.870Z,100.00
2023-02-12T03:02:24.104Z,100.00
2023-02-12T03:05:01.361Z,100.00
2023-02-12T03:07:33.775Z,100.00
2023-02-12T03:10:10.365Z,100.00
2023-02-12T03:12:46.043Z,100.00
2023-02-12T03:15:30.127Z,100.00
2023-02-12T03:18:01.373Z,100.00
2023-02-12T03:20:33.631Z,100.00
2023-02-12T03:23:09.157Z,100.00
2023-02-12T03:25:45.207Z,100.00
2023-02-12T03:28:21.269Z,100.00
2023-02-12T03:31:00.231Z,100.00
2023-02-12T03:33:59.228Z,100.00
2023-02-12T03:36:31.796Z,100.00
2023-02-12T03:39:08.959Z,100.00
2023-02-12T03:41:58.711Z,100.00
2023-02-12T03:44:42.678Z,100.00
2023-02-12T03:47:19.776Z,100.00
2023-02-12T03:50:09.740Z,100.00
2023-02-12T03:52:38.050Z,100.00
2023-02-12T03:55:07.140Z,100.00
2023-02-12T03:57:41.615Z,100.00
2023-02-12T04:00:18.984Z,100.00
2023-02-12T04:02:48.038Z,100.00
2023-02-12T04:05:26.807Z,100.00
2023-02-12T04:07:56.752Z,100.00
2023-02-12T04:10:36.905Z,100.00
2023-02-12T04:13:21.586Z,100.00
2023-02-12T04:16:04.856Z,100.00
2023-02-12T04:18:47.244Z,100.00
2023-02-12T04:21:16.910Z,100.00
2023-02-12T04:23:44.839Z,100.00
2023-02-12T04:26:25.623Z,100.00
2023-02-12T04:29:05.567Z,100.00
2023-02-12T04:31:38.430Z,100.00
2023-02-12T04:34:14.594Z,100.00
2023-02-12T04:36:53.620Z,100.00
2023-02-12T04:39:26.166Z,100.00
2023-02-12T04:41:54.651Z,100.00
2023-02-12T04:44:28.251Z,100.00
2023-02-12T04:46:55.974Z,100.00
2023-02-12T04:49:24.773Z,100.00
2023-02-12T04:51:52.127Z,100.00
2023-02-12T04:54:20.868Z,100.00
2023-02-12T04:56:48.422Z,100.00
2023-02-12T04:59:17.244Z,100.00
2023-02-12T05:01:46.097Z,100.00
2023-02-12T05:04:16.463Z,100.00
2023-02-12T05:06:45.722Z,100.00
2023-02-12T05:09:17.799Z,100.00
2023-02-12T05:11:46.203Z,100.00
2023-02-12T05:14:14.586Z,100.00
2023-02-12T05:16:42.454Z,100.00
2023-02-12T05:19:10.086Z,100.00
2023-02-12T05:21:39.591Z,100.00
2023-02-12T05:24:07.894Z,100.00
2023-02-12T05:26:35.497Z,100.00
2023-02-12T05:29:04.270Z,100.00
2023-02-12T05:31:32.300Z,100.00
2023-02-12T05:33:59.951Z,100.00
2023-02-12T05:36:30.620Z,100.00
2023-02-12T05:38:59.942Z,100.00
2023-02-12T05:41:29.387Z,100.00
2023-02-12T05:43:56.704Z,100.00
2023-02-12T05:46:24.430Z,100.00
2023-02-12T05:48:53.105Z,100.00
2023-02-12T05:51:25.902Z,100.00
2023-02-12T05:53:58.976Z,100.00
2023-02-12T05:56:30.433Z,100.00
2023-02-12T05:59:02.463Z,100.00
2023-02-12T06:01:34.517Z,100.00
2023-02-12T06:04:03.509Z,100.00
2023-02-12T06:06:32.206Z,100.00
2023-02-12T06:09:01.748Z,100.00
2023-02-12T06:11:29.952Z,100.00
2023-02-12T06:13:58.434Z,100.00
2023-02-12T06:16:28.537Z,100.00
2023-02-12T06:18:57.100Z,100.00
2023-02-12T06:21:26.936Z,100.00
2023-02-12T06:23:54.159Z,100.00
2023-02-12T06:26:22.326Z,100.00
2023-02-12T06:28:51.257Z,100.00
2023-02-12T06:31:26.246Z,100.00
2023-02-12T06:33:57.033Z,100.00
2023-02-12T06:36:26.290Z,100.00
2023-02-12T06:38:53.535Z,100.00
2023-02-12T06:41:22.678Z,100.00
2023-02-12T06:43:50.080Z,100.00
2023-02-12T06:46:18.127Z,100.00
2023-02-12T06:48:47.502Z,100.00
2023-02-12T06:51:17.702Z,100.00
2023-02-12T06:53:46.167Z,100.00
2023-02-12T06:56:15.547Z,100.00
2023-02-12T06:58:47.207Z,100.00
2023-02-12T07:01:19.022Z,100.00
2023-02-12T07:03:54.448Z,100.00
2023-02-12T07:06:22.572Z,100.00
2023-02-12T07:08:50.938Z,100.00
2023-02-12T07:11:19.964Z,100.00
2023-02-12T07:13:47.862Z,100.00
2023-02-12T07:16:16.689Z,100.00
2023-02-12T07:18:45.758Z,100.00
2023-02-12T07:21:15.707Z,100.00
2023-02-12T07:23:47.950Z,100.00
2023-02-12T07:26:18.678Z,100.00
2023-02-12T07:28:47.634Z,100.00
2023-02-12T07:31:20.263Z,100.00
2023-02-12T07:33:48.905Z,100.00
2023-02-12T07:36:19.993Z,100.00
2023-02-12T07:38:49.632Z,100.00
2023-02-12T07:41:21.320Z,100.00
2023-02-12T07:43:52.990Z,100.00
2023-02-12T07:46:27.300Z,100.00
2023-02-12T07:48:54.558Z,100.00
2023-02-12T07:51:23.459Z,100.00
2023-02-12T07:53:51.637Z,100.00
2023-02-12T07:56:23.544Z,100.00
2023-02-12T07:58:52.888Z,100.00
2023-02-12T08:01:23.940Z,100.00
2023-02-12T08:03:53.227Z,100.00
2023-02-12T08:06:24.080Z,100.00
2023-02-12T08:08:57.819Z,100.00
2023-02-12T08:11:29.545Z,100.00
2023-02-12T08:13:58.398Z,100.00
2023-02-12T08:16:29.890Z,100.00
2023-02-12T08:19:10.531Z,100.00
2023-02-12T08:21:44.963Z,100.00
2023-02-12T08:24:13.772Z,100.00
2023-02-12T08:26:41.372Z,100.00
2023-02-12T08:29:14.591Z,100.00
2023-02-12T08:31:46.015Z,100.00
2023-02-12T08:34:23.487Z,100.00
2023-02-12T08:36:55.374Z,100.00
2023-02-12T08:39:25.310Z,100.00
2023-02-12T08:41:56.322Z,100.00
2023-02-12T08:44:25.878Z,100.00
2023-02-12T08:46:56.535Z,100.00
2023-02-12T08:49:27.946Z,100.00
2023-02-12T08:51:58.038Z,100.00
2023-02-12T08:54:27.850Z,100.00
2023-02-12T08:56:58.333Z,100.00
2023-02-12T08:59:26.800Z,100.00
2023-02-12T09:01:55.229Z,100.00
2023-02-12T09:04:26.953Z,100.00
2023-02-12T09:06:56.334Z,100.00
2023-02-12T09:09:24.218Z,100.00
2023-02-12T09:11:54.099Z,100.00
2023-02-12T09:14:25.508Z,100.00
2023-02-12T09:16:53.865Z,100.00
2023-02-12T09:19:21.231Z,100.00
2023-02-12T09:21:55.850Z,100.00
2023-02-12T09:24:28.320Z,100.00
2023-02-12T09:26:55.600Z,100.00
2023-02-12T09:29:24.363Z,100.00
2023-02-12T09:31:52.343Z,100.00
2023-02-12T09:34:19.577Z,100.00
2023-02-12T09:36:50.077Z,100.00
2023-02-12T09:39:19.037Z,100.00
2023-02-12T09:42:03.864Z,100.00
2023-02-12T09:44:50.562Z,100.00
2023-02-12T09:47:32.141Z,100.00
2023-02-12T09:50:21.082Z,100.00
2023-02-12T09:52:49.455Z,100.00
2023-02-12T09:55:20.031Z,100.00
2023-02-12T09:57:49.090Z,100.00
2023-02-12T10:00:32.137Z,100.00
2023-02-12T10:03:05.888Z,100.00
2023-02-12T10:05:41.694Z,100.00
2023-02-12T10:08:24.572Z,100.00
2023-02-12T10:10:59.197Z,100.00
2023-02-12T10:13:48.713Z,100.00
2023-02-12T10:16:19.384Z,100.00
2023-02-12T10:19:18.034Z,100.00
2023-02-12T10:22:13.956Z,100.00
2023-02-12T10:25:03.317Z,100.00
2023-02-12T10:27:56.147Z,100.00
2023-02-12T10:30:30.075Z,100.00
2023-02-12T10:33:05.287Z,100.00
2023-02-12T10:35:36.224Z,100.00
2023-02-12T10:38:22.960Z,100.00
2023-02-12T10:40:51.522Z,100.00
2023-02-12T10:43:19.241Z,100.00
2023-02-12T10:45:49.538Z,100.00
2023-02-12T10:48:22.438Z,100.00
2023-02-12T10:51:25.754Z,100.00
2023-02-12T10:53:56.059Z,100.00
2023-02-12T10:56:27.138Z,100.00
2023-02-12T10:59:01.118Z,100.00
2023-02-12T11:01:31.273Z,100.00
2023-02-12T11:04:02.969Z,100.00
2023-02-12T11:06:33.426Z,100.00
2023-02-12T11:09:02.586Z,100.00
2023-02-12T11:11:31.697Z,100.00
2023-02-12T11:14:18.814Z,100.00
2023-02-12T11:16:55.741Z,100.00
2023-02-12T11:19:27.462Z,100.00
2023-02-12T11:22:07.896Z,100.00
2023-02-12T11:24:37.562Z,100.00
2023-02-12T11:27:24.993Z,100.00
2023-02-12T11:30:18.015Z,100.00
2023-02-12T11:32:48.525Z,100.00
2023-02-12T11:35:24.683Z,100.00
2023-02-12T11:37:57.878Z,100.00
2023-02-12T11:40:34.929Z,100.00
2023-02-12T11:43:08.928Z,100.00
2023-02-12T11:45:46.388Z,100.00
2023-02-12T11:48:23.072Z,100.00
2023-02-12T11:50:54.844Z,100.00
2023-02-12T11:53:29.046Z,100.00
2023-02-12T11:56:03.047Z,100.00
2023-02-12T11:58:32.313Z,100.00
2023-02-12T12:01:25.088Z,100.00
2023-02-12T12:04:08.950Z,100.00
2023-02-12T12:06:59.054Z,100.00
2023-02-12T12:09:37.507Z,100.00
2023-02-12T12:12:24.990Z,100.00
2023-02-12T12:15:19.668Z,100.00
2023-02-12T12:18:12.649Z,100.00
2023-02-12T12:21:02.881Z,100.00
2023-02-12T12:23:43.812Z,100.00
2023-02-12T12:26:23.523Z,100.00
2023-02-12T12:29:07.260Z,100.00
2023-02-12T12:31:45.708Z,100.00
2023-02-12T12:34:19.704Z,100.00
2023-02-12T12:37:19.738Z,100.00
2023-02-12T12:39:49.085Z,100.00
2023-02-12T12:42:35.937Z,100.00
2023-02-12T12:45:19.986Z,100.00
2023-02-12T12:48:26.175Z,100.00
2023-02-12T12:50:56.727Z,100.00
2023-02-12T12:53:41.727Z,100.00
2023-02-12T12:56:30.797Z,100.00
2023-02-12T12:59:17.548Z,100.00
2023-02-12T13:01:46.539Z,100.00
2023-02-12T13:04:43.879Z,100.00
2023-02-12T13:07:20.082Z,100.00
2023-02-12T13:10:00.852Z,100.00
2023-02-12T13:12:59.200Z,100.00
2023-02-12T13:15:46.921Z,98.19
2023-02-12T13:18:23.328Z,96.95
2023-02-12T13:20:57.317Z,97.64
2023-02-12T13:23:45.474Z,97.35
2023-02-12T13:26:37.927Z,96.92
2023-02-12T13:29:30.148Z,98.21
2023-02-12T13:32:07.467Z,97.55
2023-02-12T13:34:37.563Z,97.48
2023-02-12T13:37:18.846Z,97.09
2023-02-12T13:39:49.964Z,97.31
2023-02-12T13:42:41.430Z,96.78
2023-02-12T13:45:26.200Z,96.63
2023-02-12T13:48:06.821Z,95.34
2023-02-12T13:50:50.651Z,95.55
2023-02-12T13:53:34.828Z,95.75
2023-02-12T13:56:21.431Z,93.56
2023-02-12T13:58:53.256Z,94.13
2023-02-12T14:01:48.081Z,93.64
2023-02-12T14:04:31.496Z,94.52
2023-02-12T14:07:11.303Z,94.91
2023-02-12T14:09:45.820Z,94.79
2023-02-12T14:12:14.836Z,94.32
2023-02-12T14:14:49.115Z,94.73
2023-02-12T14:17:33.895Z,94.72
2023-02-12T14:20:23.911Z,94.81
2023-02-12T14:22:52.229Z,95.03
2023-02-12T14:25:40.099Z,94.92
2023-02-12T14:28:21.948Z,94.14
2023-02-12T14:31:26.356Z,94.34
2023-02-12T14:34:16.999Z,94.32
2023-02-12T14:36:50.293Z,93.99
2023-02-12T14:39:30.579Z,93.51
2023-02-12T14:42:14.013Z,93.78
2023-02-12T14:44:58.137Z,93.80
2023-02-12T14:47:47.082Z,93.46
2023-02-12T14:50:27.857Z,93.51
2023-02-12T14:53:06.429Z,93.79
2023-02-12T14:55:37.207Z,94.45
2023-02-12T14:58:17.124Z,93.74
2023-02-12T15:00:50.099Z,93.39
2023-02-12T15:03:30.910Z,92.87
2023-02-12T15:06:06.079Z,90.81
2023-02-12T15:08:58.962Z,88.73
2023-02-12T15:11:51.232Z,85.84
2023-02-12T15:14:37.749Z,80.79
2023-02-12T15:17:12.792Z,77.62
2023-02-12T15:20:00.368Z,75.11
2023-02-12T15:22:42.450Z,74.18
2023-02-12T15:25:28.195Z,73.85
2023-02-12T15:28:04.922Z,75.04
2023-02-12T15:30:36.805Z,75.71
2023-02-12T15:33:08.787Z,77.01
2023-02-12T15:35:40.554Z,79.04
2023-02-12T15:38:10.081Z,80.80
2023-02-12T15:40:38.630Z,81.97
2023-02-12T15:43:18.791Z,83.66
2023-02-12T15:45:54.503Z,84.56
2023-02-12T15:48:29.545Z,85.57
2023-02-12T15:51:22.237Z,86.07
2023-02-12T15:53:51.205Z,86.83
2023-02-12T15:56:23.702Z,87.54
2023-02-12T15:58:55.682Z,87.80
2023-02-12T16:01:31.497Z,88.13
2023-02-12T16:04:04.359Z,88.80
2023-02-12T16:06:35.780Z,89.15
2023-02-12T16:09:29.785Z,89.28
2023-02-12T16:12:01.673Z,90.76
2023-02-12T16:14:47.373Z,91.83
2023-02-12T16:17:27.695Z,93.07
2023-02-12T16:20:07.564Z,93.65
2023-02-12T16:22:41.466Z,93.69
2023-02-12T16:25:21.727Z,94.19
2023-02-12T16:27:58.351Z,94.42
2023-02-12T16:30:30.260Z,93.84
2023-02-12T16:32:59.080Z,95.19
2023-02-12T16:35:29.915Z,95.11
2023-02-12T16:38:32.286Z,94.88
2023-02-12T16:41:25.294Z,93.89
2023-02-12T16:44:27.281Z,92.92
2023-02-12T16:46:57.910Z,94.00
2023-02-12T16:49:27.937Z,95.54
2023-02-12T16:52:20.711Z,94.95
2023-02-12T16:54:49.070Z,95.76
2023-02-12T16:57:16.710Z,96.61
2023-02-12T16:59:46.099Z,96.95
2023-02-12T17:02:16.108Z,96.23
2023-02-12T17:04:43.768Z,94.78
2023-02-12T17:07:22.953Z,95.14
2023-02-12T17:09:50.708Z,95.15
2023-02-12T17:12:19.470Z,94.94
2023-02-12T17:14:50.053Z,94.96
2023-02-12T17:17:19.342Z,94.70
2023-02-12T17:19:48.281Z,94.80
2023-02-12T17:22:22.947Z,95.59
2023-02-12T17:24:54.130Z,95.74
2023-02-12T17:27:22.487Z,95.70
2023-02-12T17:29:50.575Z,96.02
2023-02-12T17:32:19.276Z,97.30
2023-02-12T17:34:49.142Z,97.47
2023-02-12T17:37:22.576Z,97.79
2023-02-12T17:39:50.807Z,97.59
2023-02-12T17:42:19.126Z,98.41
2023-02-12T17:44:47.782Z,98.43
2023-02-12T17:47:18.430Z,98.38
2023-02-12T17:49:46.302Z,99.27
2023-02-12T17:52:15.762Z,99.03
2023-02-12T17:54:47.051Z,98.84
2023-02-12T17:57:16.221Z,99.93
2023-02-12T17:59:46.233Z,100.00
2023-02-12T18:02:15.093Z,99.62
2023-02-12T18:04:44.359Z,100.00
2023-02-12T18:07:12.685Z,100.00
2023-02-12T18:09:40.198Z,99.32
2023-02-12T18:12:08.164Z,98.88
2023-02-12T18:14:37.626Z,100.00
2023-02-12T18:17:07.285Z,100.00
2023-02-12T18:19:35.753Z,100.00
2023-02-12T18:22:02.898Z,99.91
2023-02-12T18:24:31.725Z,99.33
2023-02-12T18:27:01.591Z,99.41
2023-02-12T18:29:28.569Z,99.88
2023-02-12T18:31:57.226Z,100.00
2023-02-12T18:34:27.324Z,100.00
2023-02-12T18:36:55.979Z,100.00
2023-02-12T18:39:25.779Z,100.00
2023-02-12T18:41:52.840Z,100.00
2023-02-12T18:44:21.363Z,100.00
2023-02-12T18:46:48.808Z,100.00
2023-02-12T18:49:17.078Z,100.00
2023-02-12T18:51:45.085Z,100.00
2023-02-12T18:54:13.785Z,100.00
2023-02-12T18:56:44.289Z,100.00
2023-02-12T18:59:14.125Z,100.00
2023-02-12T19:01:42.046Z,100.00
2023-02-12T19:04:12.908Z,100.00
2023-02-12T19:06:44.446Z,100.00
2023-02-12T19:09:16.853Z,100.00
2023-02-12T19:11:47.203Z,100.00
2023-02-12T19:14:16.471Z,100.00
2023-02-12T19:16:45.384Z,100.00
2023-02-12T19:19:14.488Z,100.00
2023-02-12T19:21:42.876Z,100.00
2023-02-12T19:24:12.560Z,100.00
2023-02-12T19:26:40.560Z,100.00
2023-02-12T19:29:08.288Z,100.00
2023-02-12T19:31:38.120Z,100.00
2023-02-12T19:34:09.041Z,100.00
2023-02-12T19:36:37.725Z,100.00
2023-02-12T19:39:06.644Z,100.00
2023-02-12T19:41:42.739Z,100.00
2023-02-12T19:44:13.305Z,100.00
2023-02-12T19:46:42.209Z,100.00
2023-02-12T19:49:15.233Z,100.00
2023-02-12T19:51:44.065Z,100.00
2023-02-12T19:54:13.774Z,100.00
2023-02-12T19:56:42.573Z,100.00
2023-02-12T19:59:13.064Z,100.00
2023-02-12T20:01:41.023Z,100.00
2023-02-12T20:04:09.546Z,100.00
2023-02-12T20:06:39.663Z,100.00
2023-02-12T20:09:09.396Z,100.00
2023-02-12T20:11:38.946Z,100.00
2023-02-12T20:14:09.843Z,100.00
2023-02-12T20:16:43.806Z,100.00
2023-02-12T20:19:15.672Z,100.00
2023-02-12T20:21:45.685Z,100.00
2023-02-12T20:24:14.561Z,100.00
2023-02-12T20:26:42.017Z,100.00
2023-02-12T20:29:10.806Z,100.00
2023-02-12T20:31:38.917Z,100.00
2023-02-12T20:34:10.786Z,100.00
2023-02-12T20:36:40.276Z,100.00
2023-02-12T20:39:11.171Z,100.00
2023-02-12T20:41:39.434Z,100.00
2023-02-12T20:44:12.211Z,100.00
2023-02-12T20:46:42.401Z,100.00
2023-02-12T20:49:12.820Z,100.00
2023-02-12T20:51:40.876Z,100.00
2023-02-12T20:54:09.191Z,100.00
2023-02-12T20:56:38.427Z,100.00
2023-02-12T20:59:08.981Z,100.00
2023-02-12T21:01:39.765Z,100.00
2023-02-12T21:04:12.352Z,100.00
2023-02-12T21:06:42.873Z,100.00
2023-02-12T21:09:13.689Z,100.00
2023-02-12T21:11:46.064Z,100.00
2023-02-12T21:14:22.366Z,100.00
2023-02-12T21:16:54.659Z,100.00
2023-02-12T21:19:24.151Z,100.00
2023-02-12T21:21:54.730Z,100.00
2023-02-12T21:24:26.194Z,100.00
2023-02-12T21:26:56.302Z,100.00
2023-02-12T21:29:28.324Z,100.00
2023-02-12T21:31:56.502Z,100.00
2023-02-12T21:34:26.234Z,100.00
2023-02-12T21:36:56.326Z,100.00
2023-02-12T21:39:29.308Z,100.00
2023-02-12T21:42:01.705Z,100.00
2023-02-12T21:44:30.614Z,100.00
2023-02-12T21:46:59.540Z,100.00
2023-02-12T21:49:28.544Z,100.00
2023-02-12T21:51:58.509Z,100.00
2023-02-12T21:54:29.064Z,100.00
2023-02-12T21:56:58.047Z,100.00
2023-02-12T21:59:26.892Z,100.00
2023-02-12T22:01:59.290Z,100.00
2023-02-12T22:04:29.444Z,100.00
2023-02-12T22:06:58.254Z,100.00
2023-02-12T22:09:27.133Z,100.00
2023-02-12T22:11:56.205Z,100.00
2023-02-12T22:14:25.665Z,100.00
2023-02-12T22:16:53.403Z,100.00
2023-02-12T22:19:21.662Z,100.00
2023-02-12T22:21:52.155Z,100.00
2023-02-12T22:24:20.788Z,100.00
2023-02-12T22:26:49.199Z,100.00
2023-02-12T22:29:18.919Z,100.00
2023-02-12T22:31:48.331Z,100.00
2023-02-12T22:34:20.275Z,100.00
2023-02-12T22:36:49.508Z,100.00
2023-02-12T22:39:19.282Z,100.00
2023-02-12T22:41:46.473Z,100.00
2023-02-12T22:44:15.826Z,100.00
2023-02-12T22:46:45.007Z,100.00
2023-02-12T22:49:13.902Z,100.00
2023-02-12T22:51:41.976Z,100.00
2023-02-12T22:54:14.855Z,100.00
2023-02-12T22:56:43.257Z,100.00
2023-02-12T22:59:12.145Z,100.00
2023-02-12T23:01:41.265Z,100.00
2023-02-12T23:04:12.636Z,100.00
2023-02-12T23:06:39.576Z,100.00
2023-02-12T23:09:07.444Z,100.00
2023-02-12T23:11:35.099Z,100.00
2023-02-12T23:14:03.899Z,100.00
2023-02-12T23:16:33.184Z,100.00
2023-02-12T23:19:02.593Z,100.00
2023-02-12T23:21:33.652Z,100.00
2023-02-12T23:24:02.027Z,100.00
2023-02-12T23:26:31.551Z,100.00
2023-02-12T23:29:01.010Z,100.00
2023-02-12T23:31:28.709Z,100.00
2023-02-12T23:33:55.706Z,100.00
2023-02-12T23:36:24.906Z,100.00
2023-02-12T23:38:52.374Z,100.00
2023-02-12T23:41:19.968Z,100.00
2023-02-12T23:43:48.468Z,100.00
2023-02-12T23:46:18.116Z,100.00
2023-02-12T23:48:46.202Z,100.00
2023-02-12T23:51:14.656Z,100.00
2023-02-12T23:53:41.490Z,100.00
2023-02-12T23:56:10.665Z,100.00
2023-02-12T23:58:38.243Z,100.00
